Startpagina
METAR-TAF:

METAR-TAF

Vliegvelden :

Internationale Luchthaven Antwerpen

Antwerpen, België

breedte: 51-12N, lengte: 004-28E, hoogte: 12 m

Actueel weer

Dit bericht is 23 minuten geleden gemaakt, om 21:50 UTC
Wind 4 kt uit het noordoosten
Temperatuur 16°C
Vochtigheid 45%
Druk 1026 hPa
Zicht 10 km of meer
geen wolken onder 1500 m en geen cumulonimbus

METAR: EBAW 202150Z AUTO 05004KT CAVOK 16/04 Q1026

Tijdstip: 00:13 (22:13 UTC)

Verwachting

Dit bericht is 2 uur en het 3 minuten geleden gemaakt, om 20:10 UTC
Verwachting geldig van 20 om 21 UTC tot 21 om 06 UTC
Wind 6 kt uit het noordnoordoosten
Zicht 10 km of meer
geen wolken onder 1500 m en geen cumulonimbus

TAF: EBAW 202010Z 2021/2106 03006KT CAVOK

Waarnemingen en weersverwachtingen van meer dan 4000 vliegvelden (METAR en TAF).

De beschikbare stations zijn de gele en rode punten op de kaart.

Ga met uw muis naar het station om de naam te zien.

Klik dan om waarnemingen en weersverwachtingen te zien.

kaart wijzigen: klik op de groene knoppen met een zwart kruis om in te zoomen, op de groene knop met een streepje om uit te zoomen of op de groene pijlen voor aangrenzende kaarten.


METAR-TAF: